Time;durP1;ratioP1;P1;durP2;ratioP2;P2;SDS_P1;SDS_P2;PMS_P1;PMS_P2;Temp;Humidity;BMP_temperature;BMP_pressure;BME280_temperature;BME280_humidity;BME280_pressure;Samples;Min_cycle;Max_cycle;Signal;HPM_P1;HPM_P2
2022/12/10 03:01:41;;;;;;;56.50;38.70;;;1.90;99.90;;;;;;5498421;23;20492;-79
2022/12/10 03:04:14;;;;;;;63.07;40.67;;;1.90;99.90;;;;;;4921810;29;20455;-80
2022/12/10 03:06:47;;;;;;;55.87;36.93;;;1.80;99.90;;;;;;4921167;29;20453;-79
2022/12/10 03:09:19;;;;;;;57.97;37.10;;;1.80;99.90;;;;;;4919777;29;20456;-80
2022/12/10 03:11:50;;;;;;;61.60;38.23;;;1.80;99.90;;;;;;4904689;29;20475;-79
2022/12/10 03:14:23;;;;;;;58.20;38.23;;;1.90;99.90;;;;;;4908909;29;20447;-79
2022/12/10 03:16:56;;;;;;;57.83;39.40;;;1.90;99.90;;;;;;4909271;29;20476;-79
2022/12/10 03:19:29;;;;;;;55.63;36.67;;;1.80;99.90;;;;;;4905787;29;20433;-78
2022/12/10 03:21:57;;;;;;;60.37;39.37;;;1.80;99.90;;;;;;4912927;29;20511;-79
2022/12/10 03:24:28;;;;;;;54.80;38.90;;;1.80;99.90;;;;;;4902313;29;20510;-79
2022/12/10 03:26:58;;;;;;;57.07;39.33;;;1.70;99.90;;;;;;4908429;29;20433;-79
2022/12/10 03:29:29;;;;;;;52.23;35.63;;;1.80;99.90;;;;;;4910785;29;20448;-79
2022/12/10 03:31:59;;;;;;;56.97;38.53;;;1.70;99.90;;;;;;4909139;29;20252;-79
2022/12/10 03:34:26;;;;;;;55.30;37.33;;;1.70;99.90;;;;;;4911305;29;20425;-78
2022/12/10 03:36:54;;;;;;;46.63;35.73;;;1.70;99.90;;;;;;4894703;29;20484;-79
2022/12/10 03:39:21;;;;;;;51.13;36.47;;;1.80;99.90;;;;;;4892487;29;20461;-78
2022/12/10 03:41:47;;;;;;;50.90;35.43;;;1.80;99.90;;;;;;4885290;29;20245;-79
2022/12/10 03:44:27;;;;;;;44.87;34.47;;;1.80;99.90;;;;;;4894231;29;20464;-78
2022/12/10 03:46:54;;;;;;;47.63;35.13;;;1.80;99.90;;;;;;4890433;29;20523;-79
2022/12/10 03:49:22;;;;;;;52.27;36.17;;;1.80;99.90;;;;;;4891115;29;21029;-78
2022/12/10 03:51:49;;;;;;;44.73;34.73;;;1.80;99.90;;;;;;4888788;29;20856;-79
2022/12/10 03:54:15;;;;;;;46.70;35.43;;;1.80;99.90;;;;;;4885776;29;20450;-79
2022/12/10 03:56:42;;;;;;;44.77;34.97;;;1.80;99.90;;;;;;4892905;29;20539;-79
2022/12/10 03:59:09;;;;;;;47.90;35.43;;;1.80;99.90;;;;;;4887266;29;20449;-79
2022/12/10 04:01:36;;;;;;;50.93;36.60;;;1.80;99.90;;;;;;4889505;29;20865;-82
2022/12/10 04:04:05;;;;;;;41.07;34.03;;;1.80;99.90;;;;;;4893496;29;20446;-80
2022/12/10 04:06:38;;;;;;;50.23;39.30;;;1.80;99.90;;;;;;4891102;29;20200;-79
2022/12/10 04:09:05;;;;;;;43.67;35.30;;;1.90;99.90;;;;;;4883480;29;20464;-78
2022/12/10 04:11:32;;;;;;;49.20;36.57;;;1.90;99.90;;;;;;4884437;29;20510;-79
2022/12/10 04:16:43;;;;;;;42.67;33.83;;;1.90;99.90;;;;;;4887436;29;20553;-78
2022/12/10 04:19:12;;;;;;;43.50;33.53;;;2.00;99.90;;;;;;4893197;29;20208;-78
2022/12/10 04:27:20;;;;;;;39.73;33.10;;;1.80;99.90;;;;;;4892493;29;20942;-79
2022/12/10 04:29:47;;;;;;;40.17;33.90;;;1.80;99.90;;;;;;4891580;29;20462;-78
2022/12/10 04:32:14;;;;;;;42.20;33.80;;;1.80;99.90;;;;;;4902072;29;20518;-80
2022/12/10 04:34:41;;;;;;;41.30;34.37;;;1.80;99.90;;;;;;4888976;29;20829;-81
2022/12/10 04:37:10;;;;;;;39.70;33.43;;;1.80;99.90;;;;;;4890302;29;20487;-79
2022/12/10 04:39:38;;;;;;;37.90;32.73;;;1.90;99.90;;;;;;4898841;29;20454;-79
2022/12/10 04:42:06;;;;;;;40.80;34.13;;;1.90;99.90;;;;;;4895261;29;20492;-80
2022/12/10 04:44:33;;;;;;;47.20;36.67;;;1.90;99.90;;;;;;4887528;29;20545;-80
2022/12/10 04:47:00;;;;;;;43.97;35.40;;;1.90;99.90;;;;;;4876137;29;20463;-80
2022/12/10 04:49:27;;;;;;;45.30;35.70;;;1.90;99.90;;;;;;4890957;29;20479;-80
2022/12/10 04:51:55;;;;;;;44.73;34.47;;;1.90;99.90;;;;;;4887036;29;20677;-80
2022/12/10 04:54:24;;;;;;;36.87;32.27;;;1.90;99.90;;;;;;4888425;29;20690;-80
2022/12/10 04:56:51;;;;;;;43.30;33.23;;;1.90;99.90;;;;;;4888227;29;20993;-80
2022/12/10 04:59:19;;;;;;;41.93;33.00;;;1.90;99.90;;;;;;4891629;29;20453;-80
2022/12/10 05:01:46;;;;;;;43.10;35.00;;;1.80;99.90;;;;;;4890906;29;20488;-80
2022/12/10 05:04:15;;;;;;;46.63;34.60;;;1.80;99.90;;;;;;4890992;29;20814;-80
2022/12/10 05:06:42;;;;;;;41.07;33.10;;;1.80;99.90;;;;;;4885049;29;20236;-81
2022/12/10 05:09:10;;;;;;;42.30;33.83;;;1.80;99.90;;;;;;4890061;29;20253;-80
2022/12/10 05:11:39;;;;;;;40.00;32.83;;;1.80;99.90;;;;;;4888471;29;20467;-80
2022/12/10 05:14:06;;;;;;;38.87;32.37;;;1.80;99.90;;;;;;4886000;29;20279;-80
2022/12/10 05:16:34;;;;;;;45.40;34.67;;;1.70;99.90;;;;;;4893296;29;20476;-80
2022/12/10 05:19:01;;;;;;;41.53;32.80;;;1.70;99.90;;;;;;4888570;29;20441;-80
2022/12/10 05:23:27;;;;;;;44.67;34.27;;;1.70;99.90;;;;;;4888998;29;20553;-78
2022/12/10 05:24:18;;;;;;;43.47;32.53;;;1.60;99.90;;;;;;4882994;29;20553;-79
2022/12/10 05:26:50;;;;;;;43.93;33.93;;;1.70;99.90;;;;;;4878619;29;20448;-80
2022/12/10 05:29:18;;;;;;;41.37;33.97;;;1.70;99.90;;;;;;4880501;29;20463;-80
2022/12/10 05:31:44;;;;;;;40.77;34.77;;;1.70;99.90;;;;;;4881562;29;20504;-80
2022/12/10 05:34:11;;;;;;;46.10;34.43;;;1.60;99.90;;;;;;4884082;29;20438;-80
2022/12/10 05:36:38;;;;;;;42.00;33.53;;;1.70;99.90;;;;;;4874544;29;20486;-80
2022/12/10 05:39:06;;;;;;;39.43;32.20;;;1.70;99.90;;;;;;4871791;29;20466;-80
2022/12/10 05:41:37;;;;;;;45.07;34.93;;;1.70;99.90;;;;;;4875828;29;20484;-80
2022/12/10 05:44:06;;;;;;;40.53;33.60;;;1.70;99.90;;;;;;4882401;29;20453;-80
2022/12/10 05:46:35;;;;;;;43.23;34.47;;;1.70;99.90;;;;;;4895075;29;20926;-80
2022/12/10 05:49:02;;;;;;;36.67;32.67;;;1.70;99.90;;;;;;4886106;29;20464;-80
2022/12/10 05:51:32;;;;;;;39.70;32.93;;;1.70;99.90;;;;;;4881125;29;21259;-80
2022/12/10 05:54:01;;;;;;;42.53;34.77;;;1.70;99.90;;;;;;4888932;29;20437;-80
2022/12/10 05:56:28;;;;;;;40.17;32.80;;;1.70;99.90;;;;;;4889583;29;21116;-80
2022/12/10 05:58:58;;;;;;;38.80;33.30;;;1.70;99.90;;;;;;4889178;29;20861;-80
2022/12/10 06:01:29;;;;;;;38.27;32.03;;;1.70;99.90;;;;;;4889417;29;20494;-80
2022/12/10 06:03:58;;;;;;;37.60;32.27;;;1.80;99.90;;;;;;4889939;29;20297;-80
2022/12/10 06:06:26;;;;;;;44.50;34.83;;;1.70;99.90;;;;;;4889474;29;20681;-80
2022/12/10 06:08:54;;;;;;;40.43;34.97;;;1.80;99.90;;;;;;4891916;29;20439;-80
2022/12/10 06:11:22;;;;;;;39.60;32.97;;;1.80;99.90;;;;;;4884809;29;20485;-80
2022/12/10 06:13:49;;;;;;;37.83;31.90;;;1.80;99.90;;;;;;4867168;29;20475;-80
2022/12/10 06:16:16;;;;;;;41.13;34.23;;;1.80;99.90;;;;;;4874218;29;20473;-80
2022/12/10 06:18:44;;;;;;;36.43;31.40;;;1.80;99.90;;;;;;4888680;29;20453;-79
2022/12/10 06:21:13;;;;;;;38.50;32.33;;;1.80;99.90;;;;;;4890883;29;20465;-78
2022/12/10 06:23:41;;;;;;;37.20;32.23;;;1.80;99.90;;;;;;4891096;29;20929;-79
2022/12/10 06:26:10;;;;;;;36.77;32.10;;;1.70;99.90;;;;;;4887283;29;20537;-80
2022/12/10 06:28:37;;;;;;;37.83;31.70;;;1.80;99.90;;;;;;4886499;29;20454;-79
2022/12/10 06:31:04;;;;;;;37.23;32.50;;;1.90;99.90;;;;;;4886884;29;20890;-80
2022/12/10 06:33:31;;;;;;;42.47;33.43;;;1.90;99.90;;;;;;4882690;29;20459;-81
2022/12/10 06:35:59;;;;;;;42.33;32.93;;;1.90;99.90;;;;;;4886619;29;20524;-81
2022/12/10 06:38:26;;;;;;;35.73;31.80;;;1.90;99.90;;;;;;4880264;29;20487;-78
2022/12/10 06:40:53;;;;;;;39.40;34.20;;;1.90;99.90;;;;;;4886119;29;20476;-78
2022/12/10 06:43:20;;;;;;;39.43;33.33;;;1.90;99.90;;;;;;4883483;29;20480;-79
2022/12/10 06:45:47;;;;;;;36.90;30.93;;;1.90;99.90;;;;;;4891925;29;20465;-79
2022/12/10 06:48:14;;;;;;;36.70;31.43;;;1.90;99.90;;;;;;4893914;29;20441;-78
2022/12/10 06:50:41;;;;;;;40.87;33.80;;;1.90;99.90;;;;;;4895143;29;20460;-79
2022/12/10 06:53:09;;;;;;;35.93;31.50;;;1.80;99.90;;;;;;4890538;29;20204;-81
2022/12/10 06:55:37;;;;;;;37.07;32.10;;;1.70;99.90;;;;;;4891959;29;20452;-79
2022/12/10 06:58:04;;;;;;;39.13;31.83;;;1.70;99.90;;;;;;4890447;29;21057;-80
2022/12/10 07:00:31;;;;;;;33.87;30.27;;;1.70;99.90;;;;;;4893638;29;20440;-79
2022/12/10 07:02:58;;;;;;;37.50;30.27;;;1.60;99.90;;;;;;4890817;29;20517;-80
2022/12/10 07:05:25;;;;;;;38.37;31.80;;;1.70;99.90;;;;;;4891820;29;20219;-80
2022/12/10 07:07:52;;;;;;;34.13;30.33;;;1.70;99.90;;;;;;4891530;29;20524;-80
2022/12/10 07:10:20;;;;;;;36.37;31.10;;;1.70;99.90;;;;;;4891111;29;20464;-80
2022/12/10 07:12:47;;;;;;;37.33;30.83;;;1.70;99.90;;;;;;4880270;29;20586;-80
2022/12/10 07:15:14;;;;;;;39.97;33.43;;;1.70;99.90;;;;;;4881783;29;20488;-80
2022/12/10 07:17:41;;;;;;;36.57;31.97;;;1.70;99.90;;;;;;4882446;29;20501;-80
2022/12/10 07:20:09;;;;;;;37.03;32.43;;;1.70;99.90;;;;;;4883993;29;20447;-80
2022/12/10 07:22:36;;;;;;;36.23;32.30;;;1.70;99.90;;;;;;4884957;29;20507;-78
2022/12/10 07:25:03;;;;;;;38.17;33.83;;;1.70;99.90;;;;;;4891204;29;20475;-79
2022/12/10 07:27:31;;;;;;;36.43;32.60;;;1.60;99.90;;;;;;4894663;29;21012;-78
2022/12/10 07:29:58;;;;;;;35.70;31.90;;;1.60;99.90;;;;;;4888336;29;20465;-76
2022/12/10 07:32:27;;;;;;;35.63;31.83;;;1.60;99.90;;;;;;4889484;29;20459;-77
2022/12/10 07:34:54;;;;;;;37.27;32.07;;;1.70;99.90;;;;;;4886441;29;20438;-76
2022/12/10 07:37:21;;;;;;;38.47;32.03;;;1.70;99.90;;;;;;4894160;29;20949;-78
2022/12/10 07:39:47;;;;;;;35.93;31.03;;;1.70;99.90;;;;;;4889479;29;20945;-77
2022/12/10 07:42:14;;;;;;;38.43;31.50;;;1.70;99.90;;;;;;4888795;29;20853;-77
2022/12/10 07:44:43;;;;;;;37.50;32.17;;;1.70;99.90;;;;;;4894698;29;20432;-81
2022/12/10 07:47:10;;;;;;;34.63;30.37;;;1.70;99.90;;;;;;4895909;29;20513;-80
2022/12/10 07:49:37;;;;;;;36.43;32.47;;;1.80;99.90;;;;;;4894117;29;20451;-79
2022/12/10 07:52:04;;;;;;;36.27;32.27;;;1.90;99.90;;;;;;4890054;29;20472;-78
2022/12/10 07:54:31;;;;;;;37.37;31.80;;;1.80;99.90;;;;;;4880954;29;20445;-78
2022/12/10 07:56:57;;;;;;;34.77;31.20;;;1.80;99.90;;;;;;4883759;29;20457;-79
2022/12/10 07:59:27;;;;;;;39.03;31.93;;;1.90;99.90;;;;;;4886067;29;20512;-78
2022/12/10 08:01:55;;;;;;;36.33;32.37;;;1.90;99.90;;;;;;4883600;29;20474;-78
2022/12/10 08:04:22;;;;;;;34.53;29.40;;;1.80;99.90;;;;;;4885203;29;20456;-78
2022/12/10 08:06:49;;;;;;;34.80;31.20;;;1.90;99.90;;;;;;4884492;29;20484;-78
2022/12/10 08:09:15;;;;;;;35.40;31.50;;;1.80;99.90;;;;;;4884836;29;20462;-78
2022/12/10 08:11:42;;;;;;;34.30;29.63;;;1.80;99.90;;;;;;4883856;29;20485;-78
2022/12/10 08:14:09;;;;;;;35.07;30.60;;;1.90;99.90;;;;;;4884846;29;20460;-78
2022/12/10 08:16:36;;;;;;;35.97;32.00;;;1.90;99.90;;;;;;4892124;29;20860;-78
2022/12/10 08:19:04;;;;;;;33.70;30.10;;;1.90;99.90;;;;;;4891034;29;20476;-78
2022/12/10 08:21:33;;;;;;;34.73;31.10;;;1.90;99.90;;;;;;4892131;29;20477;-82
2022/12/10 08:24:01;;;;;;;32.70;29.33;;;1.90;99.90;;;;;;4893654;29;20457;-78
2022/12/10 08:26:33;;;;;;;35.50;31.80;;;1.90;99.90;;;;;;4895430;29;20941;-81
2022/12/10 08:29:00;;;;;;;32.97;29.40;;;2.00;99.90;;;;;;4888038;29;20820;-79
2022/12/10 08:31:28;;;;;;;37.07;31.77;;;2.00;99.90;;;;;;4892403;29;20471;-78
2022/12/10 08:33:55;;;;;;;36.67;30.23;;;2.10;99.90;;;;;;4891697;29;20446;-78
2022/12/10 08:36:24;;;;;;;35.43;31.40;;;2.10;99.90;;;;;;4892954;29;20460;-79
2022/12/10 08:38:50;;;;;;;34.70;31.30;;;2.20;99.90;;;;;;4886407;29;20213;-79
2022/12/10 08:41:19;;;;;;;36.40;32.33;;;2.20;99.90;;;;;;4893129;29;20477;-78
2022/12/10 08:43:47;;;;;;;35.00;31.30;;;2.20;99.90;;;;;;4890497;29;20465;-79
2022/12/10 08:46:14;;;;;;;33.60;29.97;;;2.30;99.90;;;;;;4888851;29;20457;-78
2022/12/10 08:48:41;;;;;;;34.63;30.90;;;2.30;99.90;;;;;;4885555;29;20455;-78
2022/12/10 08:51:10;;;;;;;33.47;29.83;;;2.30;99.90;;;;;;4888335;29;20481;-79
2022/12/10 08:53:38;;;;;;;36.43;32.53;;;2.30;99.90;;;;;;4894363;29;20449;-79
2022/12/10 08:56:05;;;;;;;35.43;31.07;;;2.30;99.90;;;;;;4892174;29;20441;-79
2022/12/10 08:58:32;;;;;;;33.50;29.53;;;2.30;99.90;;;;;;4891615;29;20239;-79
2022/12/10 09:01:01;;;;;;;38.20;31.43;;;2.40;99.90;;;;;;4894054;29;20253;-79
2022/12/10 09:03:28;;;;;;;35.43;31.53;;;2.40;99.90;;;;;;4883237;29;20467;-79
2022/12/10 09:05:55;;;;;;;35.17;31.47;;;2.50;99.90;;;;;;4887408;29;20521;-79
2022/12/10 09:08:21;;;;;;;34.17;30.50;;;2.50;99.90;;;;;;4890625;29;20205;-79
2022/12/10 09:10:49;;;;;;;34.37;30.60;;;2.60;99.90;;;;;;4889438;29;20218;-79
2022/12/10 09:13:16;;;;;;;34.03;30.47;;;2.70;99.90;;;;;;4892716;29;20556;-79
2022/12/10 09:15:50;;;;;;;34.97;31.17;;;2.80;99.90;;;;;;4895003;29;20251;-79
2022/12/10 09:18:17;;;;;;;33.97;30.30;;;2.80;99.90;;;;;;4891815;29;20284;-77
2022/12/10 09:20:45;;;;;;;32.83;29.33;;;2.90;99.90;;;;;;4881057;29;20768;-77
2022/12/10 09:23:12;;;;;;;32.33;28.93;;;2.90;99.90;;;;;;4878671;29;20209;-76
2022/12/10 09:25:38;;;;;;;33.53;29.93;;;2.90;99.90;;;;;;4878453;29;20212;-77
2022/12/10 09:28:07;;;;;;;33.43;29.93;;;2.80;99.90;;;;;;4880991;29;20294;-77
2022/12/10 09:30:34;;;;;;;33.53;29.77;;;2.80;99.90;;;;;;4884130;29;20216;-77
2022/12/10 09:33:01;;;;;;;32.90;29.47;;;2.80;99.90;;;;;;4886247;29;21032;-77
2022/12/10 09:35:28;;;;;;;32.97;29.47;;;2.70;99.90;;;;;;4875578;29;20456;-77
2022/12/10 09:37:55;;;;;;;33.80;29.60;;;2.70;99.90;;;;;;4870528;29;20309;-77
2022/12/10 09:40:30;;;;;;;32.50;29.07;;;2.70;99.90;;;;;;4885435;29;20205;-77
2022/12/10 09:43:01;;;;;;;34.40;30.70;;;2.70;99.90;;;;;;4884107;29;20208;-77
2022/12/10 09:45:37;;;;;;;33.73;30.27;;;2.70;99.90;;;;;;4878037;29;20220;-78
2022/12/10 09:48:16;;;;;;;32.50;29.10;;;2.70;99.90;;;;;;4882482;29;20193;-80
2022/12/10 09:50:49;;;;;;;32.30;28.93;;;2.80;99.90;;;;;;4883893;29;20601;-78
2022/12/10 09:53:20;;;;;;;32.57;28.57;;;2.80;99.90;;;;;;4886183;29;20213;-77
2022/12/10 09:55:48;;;;;;;33.67;30.17;;;2.70;99.90;;;;;;4882279;29;20205;-77
2022/12/10 09:58:20;;;;;;;34.13;30.63;;;2.80;99.90;;;;;;4881829;29;20213;-79
2022/12/10 10:00:51;;;;;;;35.20;29.27;;;2.90;99.90;;;;;;4887866;29;20240;-79
2022/12/10 10:03:18;;;;;;;34.03;30.63;;;2.70;99.90;;;;;;4885625;29;20292;-79
2022/12/10 10:05:48;;;;;;;32.03;28.67;;;2.70;99.90;;;;;;4888358;29;20198;-79
2022/12/10 10:08:24;;;;;;;32.07;28.23;;;2.70;99.90;;;;;;4885479;29;20206;-79
2022/12/10 10:10:51;;;;;;;34.33;29.23;;;2.80;99.90;;;;;;4886280;29;20275;-80
2022/12/10 10:13:27;;;;;;;31.63;28.23;;;2.80;99.90;;;;;;4888130;29;20213;-80
2022/12/10 10:15:56;;;;;;;32.13;28.80;;;2.90;99.90;;;;;;4879909;29;20311;-80
2022/12/10 10:18:32;;;;;;;33.43;30.00;;;3.00;99.90;;;;;;4877473;29;20224;-79
2022/12/10 10:21:00;;;;;;;32.87;29.53;;;3.00;99.90;;;;;;4883538;29;20304;-78
2022/12/10 10:23:27;;;;;;;34.00;30.13;;;3.10;99.90;;;;;;4886163;29;20730;-78
2022/12/10 10:25:54;;;;;;;32.47;29.07;;;3.10;99.90;;;;;;4890983;29;20201;-78
2022/12/10 10:28:23;;;;;;;32.57;28.93;;;3.10;99.90;;;;;;4890670;29;20235;-78
2022/12/10 10:30:52;;;;;;;33.27;28.73;;;3.10;99.90;;;;;;4889833;29;20232;-78
2022/12/10 10:33:21;;;;;;;33.10;29.70;;;3.20;99.90;;;;;;4896550;29;20212;-78
2022/12/10 10:35:50;;;;;;;33.37;29.40;;;3.20;99.90;;;;;;4893288;29;20205;-78
2022/12/10 10:38:22;;;;;;;33.43;29.83;;;3.20;99.90;;;;;;4888675;29;20221;-78
2022/12/10 10:40:53;;;;;;;32.60;29.10;;;3.30;99.90;;;;;;4889122;29;20694;-77
2022/12/10 10:43:23;;;;;;;33.20;29.80;;;3.30;99.90;;;;;;4895185;29;20261;-78
2022/12/10 10:45:53;;;;;;;31.87;28.67;;;3.40;99.90;;;;;;4892558;29;20203;-77
2022/12/10 10:48:23;;;;;;;30.83;27.73;;;3.50;99.90;;;;;;4889516;29;20305;-77
2022/12/10 10:50:52;;;;;;;32.40;29.07;;;3.60;99.90;;;;;;4893003;29;20224;-81
2022/12/10 10:53:31;;;;;;;33.57;30.10;;;3.60;99.90;;;;;;4904226;29;20200;-80
2022/12/10 10:56:11;;;;;;;33.77;29.23;;;3.40;99.90;;;;;;4895476;29;20268;-80
2022/12/10 10:59:04;;;;;;;32.17;28.83;;;3.50;99.90;;;;;;4880641;29;20698;-78
2022/12/10 11:01:46;;;;;;;31.40;28.20;;;3.50;99.90;;;;;;4877581;29;20269;-78
2022/12/10 11:04:16;;;;;;;30.80;27.60;;;3.50;99.90;;;;;;4895044;29;20216;-79
2022/12/10 11:06:45;;;;;;;32.30;28.83;;;3.50;99.90;;;;;;4899280;29;20197;-79
2022/12/10 11:09:21;;;;;;;31.63;28.33;;;3.40;99.90;;;;;;4899530;29;20216;-79
2022/12/10 11:11:52;;;;;;;33.73;29.90;;;3.40;99.90;;;;;;4894356;29;20224;-78
2022/12/10 11:14:25;;;;;;;30.90;27.80;;;3.30;99.90;;;;;;4897366;29;20210;-78
2022/12/10 11:17:01;;;;;;;33.63;29.00;;;3.30;99.90;;;;;;4898520;29;20205;-78
2022/12/10 11:19:30;;;;;;;32.50;28.03;;;3.30;99.90;;;;;;4883351;29;20216;-77
2022/12/10 11:22:17;;;;;;;29.93;26.90;;;3.30;99.90;;;;;;4886362;29;20217;-78
2022/12/10 11:24:46;;;;;;;30.47;27.37;;;3.30;99.90;;;;;;4889450;29;20205;-77
2022/12/10 11:27:18;;;;;;;31.33;28.10;;;3.20;99.90;;;;;;4890422;29;20253;-77
2022/12/10 11:29:55;;;;;;;31.03;27.90;;;3.20;99.90;;;;;;4890446;29;20189;-78
2022/12/10 11:32:35;;;;;;;28.77;25.93;;;3.20;99.90;;;;;;4890136;29;20232;-78
2022/12/10 11:35:13;;;;;;;30.50;27.30;;;3.30;99.90;;;;;;4891865;29;20563;-78
2022/12/10 11:37:46;;;;;;;31.07;27.87;;;3.50;99.90;;;;;;4869002;29;20209;-77
2022/12/10 11:40:33;;;;;;;31.27;27.43;;;3.50;99.90;;;;;;4882712;29;20212;-78
2022/12/10 11:43:15;;;;;;;29.83;26.80;;;3.70;99.90;;;;;;4888586;29;20204;-77
2022/12/10 11:45:54;;;;;;;30.17;26.90;;;3.70;99.90;;;;;;4886739;29;20201;-77
2022/12/10 11:48:35;;;;;;;31.20;27.90;;;3.70;99.90;;;;;;4890052;29;20201;-78
2022/12/10 11:51:06;;;;;;;29.53;26.47;;;3.60;99.90;;;;;;4882742;29;20239;-78
2022/12/10 11:53:51;;;;;;;30.87;26.60;;;3.60;99.90;;;;;;4894384;29;20213;-78
2022/12/10 11:56:25;;;;;;;29.40;26.40;;;3.60;99.90;;;;;;4885541;29;20240;-78
2022/12/10 11:59:02;;;;;;;29.13;25.53;;;3.60;99.90;;;;;;4881204;29;20386;-78
2022/12/10 12:01:42;;;;;;;28.67;25.40;;;3.60;99.90;;;;;;4879799;29;20237;-78
2022/12/10 12:04:24;;;;;;;28.00;25.20;;;3.60;99.90;;;;;;4883212;29;20654;-78
2022/12/10 12:07:31;;;;;;;27.27;24.60;;;3.50;99.90;;;;;;4892524;29;20201;-78
2022/12/10 12:10:21;;;;;;;28.00;25.07;;;3.50;99.90;;;;;;4874000;29;20292;-78
2022/12/10 12:12:55;;;;;;;30.83;26.20;;;3.40;99.90;;;;;;4886692;29;20279;-78
2022/12/10 12:15:25;;;;;;;28.67;25.60;;;3.40;99.90;;;;;;4891781;29;20212;-78
2022/12/10 12:17:57;;;;;;;28.70;25.60;;;3.30;99.90;;;;;;4890726;29;20193;-78
2022/12/10 12:20:28;;;;;;;28.53;25.63;;;3.20;99.90;;;;;;4889864;29;20284;-78
2022/12/10 12:23:01;;;;;;;26.60;24.00;;;3.30;99.90;;;;;;4871839;29;20216;-79
2022/12/10 12:25:33;;;;;;;28.57;25.83;;;3.40;99.90;;;;;;4887260;29;20959;-84
2022/12/10 12:28:06;;;;;;;27.50;24.57;;;3.40;99.90;;;;;;4891281;29;20208;-79
2022/12/10 12:30:35;;;;;;;27.67;24.97;;;3.40;99.90;;;;;;4870348;29;20213;-81
2022/12/10 12:33:06;;;;;;;27.17;24.27;;;3.50;99.90;;;;;;4868639;29;20376;-81
2022/12/10 12:35:41;;;;;;;26.90;24.30;;;3.50;99.90;;;;;;4876435;29;20565;-82
2022/12/10 12:38:24;;;;;;;25.20;22.60;;;3.50;99.90;;;;;;4877508;29;20584;-81
2022/12/10 12:40:57;;;;;;;26.43;23.80;;;3.60;99.90;;;;;;4886027;29;20223;-83
2022/12/10 12:43:29;;;;;;;25.30;22.83;;;3.60;99.90;;;;;;4884681;29;20205;-77
2022/12/10 12:45:56;;;;;;;24.97;22.47;;;3.50;99.90;;;;;;4877945;29;20693;-78
2022/12/10 12:48:29;;;;;;;24.57;21.90;;;3.50;99.90;;;;;;4880032;29;20217;-77
2022/12/10 12:51:02;;;;;;;23.80;21.47;;;3.50;99.90;;;;;;4879417;29;20228;-77
2022/12/10 12:53:31;;;;;;;23.97;21.73;;;3.50;99.90;;;;;;4878289;29;20205;-77
2022/12/10 12:56:03;;;;;;;25.17;22.67;;;3.50;99.90;;;;;;4885991;29;20232;-79
2022/12/10 12:58:40;;;;;;;24.33;21.83;;;3.50;99.90;;;;;;4885390;29;20231;-77
2022/12/10 13:01:19;;;;;;;25.77;23.27;;;3.50;99.90;;;;;;4884365;29;20227;-78
2022/12/10 13:03:48;;;;;;;26.53;23.73;;;3.40;99.90;;;;;;4881550;29;20205;-78
2022/12/10 13:06:21;;;;;;;25.53;23.03;;;3.40;99.90;;;;;;4884737;29;20243;-78
2022/12/10 13:08:53;;;;;;;25.27;22.67;;;3.30;99.90;;;;;;4879879;29;20197;-77
2022/12/10 13:11:34;;;;;;;25.03;22.63;;;3.30;99.90;;;;;;4878814;29;20229;-77
2022/12/10 13:14:30;;;;;;;25.43;22.93;;;3.30;99.90;;;;;;4880933;29;20197;-77
2022/12/10 13:17:16;;;;;;;26.77;24.07;;;3.30;99.90;;;;;;4879901;29;20208;-77
2022/12/10 13:19:43;;;;;;;26.27;23.57;;;3.40;99.90;;;;;;4875130;29;20223;-77
2022/12/10 13:22:13;;;;;;;27.37;24.57;;;3.30;99.90;;;;;;4884343;29;20237;-78
2022/12/10 13:25:13;;;;;;;26.77;24.00;;;3.40;99.90;;;;;;4881760;29;20608;-77
2022/12/10 13:27:41;;;;;;;26.40;23.80;;;3.30;99.90;;;;;;4867742;29;20209;-77
2022/12/10 13:30:27;;;;;;;26.77;24.07;;;3.30;99.90;;;;;;4880628;29;20197;-77
2022/12/10 13:33:04;;;;;;;24.93;22.47;;;3.20;99.90;;;;;;4879269;29;20457;-77
2022/12/10 13:35:32;;;;;;;26.00;23.50;;;3.20;99.90;;;;;;4876095;29;20200;-77
2022/12/10 13:38:16;;;;;;;25.40;23.03;;;3.10;99.90;;;;;;4889417;29;20203;-78
2022/12/10 13:46:58;;;;;;;26.40;23.90;;;3.00;99.90;;;;;;4884549;29;20193;-77
2022/12/10 13:49:27;;;;;;;26.07;23.57;;;3.00;99.90;;;;;;4882564;29;20623;-77
2022/12/10 13:51:59;;;;;;;26.70;24.00;;;3.10;99.90;;;;;;4879559;29;20224;-78
2022/12/10 13:54:49;;;;;;;27.67;24.97;;;3.20;99.90;;;;;;4879070;29;20212;-77
2022/12/10 13:57:39;;;;;;;27.20;24.30;;;3.20;99.90;;;;;;4877301;29;20209;-79
2022/12/10 14:00:12;;;;;;;25.63;23.17;;;3.10;99.90;;;;;;4887088;29;20758;-80
2022/12/10 14:03:18;;;;;;;26.03;23.43;;;3.10;99.90;;;;;;4881176;29;20242;-78
2022/12/10 14:06:07;;;;;;;26.70;24.03;;;3.00;99.90;;;;;;4860279;29;20658;-79
2022/12/10 14:08:37;;;;;;;25.67;23.23;;;3.00;99.90;;;;;;4883800;29;20702;-79
2022/12/10 14:11:07;;;;;;;24.93;22.53;;;3.00;99.90;;;;;;4877086;29;20766;-79
2022/12/10 14:13:42;;;;;;;26.33;23.63;;;3.00;99.90;;;;;;4879953;29;20204;-79
2022/12/10 14:16:14;;;;;;;25.90;23.20;;;3.00;99.90;;;;;;4879013;29;20304;-79
2022/12/10 14:18:44;;;;;;;25.80;23.30;;;2.90;99.90;;;;;;4872268;29;20219;-78
2022/12/10 14:21:15;;;;;;;25.63;23.00;;;2.90;99.90;;;;;;4870075;29;20714;-77
2022/12/10 14:23:46;;;;;;;24.37;21.87;;;2.90;99.90;;;;;;4886320;29;20208;-77
2022/12/10 14:26:15;;;;;;;25.63;23.03;;;2.90;99.90;;;;;;4879045;29;20201;-78
2022/12/10 14:28:46;;;;;;;25.13;22.37;;;2.80;99.90;;;;;;4885069;29;20194;-78
2022/12/10 14:31:17;;;;;;;23.50;21.10;;;2.80;99.90;;;;;;4891559;29;20231;-77
2022/12/10 14:33:47;;;;;;;24.63;22.20;;;2.70;99.90;;;;;;4885277;29;20197;-78
2022/12/10 14:36:22;;;;;;;23.77;21.47;;;2.70;99.90;;;;;;4877409;29;20235;-79
2022/12/10 14:38:51;;;;;;;23.87;21.60;;;2.70;99.90;;;;;;4879327;29;20275;-78
2022/12/10 14:41:21;;;;;;;23.40;21.20;;;2.60;99.90;;;;;;4881305;29;20233;-78
2022/12/10 14:43:50;;;;;;;25.33;22.83;;;2.60;99.90;;;;;;4872607;29;20292;-78
2022/12/10 14:46:21;;;;;;;24.40;21.80;;;2.60;99.90;;;;;;4877119;29;20242;-77
2022/12/10 14:48:52;;;;;;;25.33;22.57;;;2.50;99.90;;;;;;4877606;29;20309;-78
2022/12/10 14:51:21;;;;;;;23.43;21.23;;;2.50;99.90;;;;;;4886014;29;20460;-77
2022/12/10 14:53:53;;;;;;;24.93;22.43;;;2.50;99.90;;;;;;4888329;29;20224;-78
2022/12/10 14:56:25;;;;;;;25.10;22.60;;;2.50;99.90;;;;;;4884973;29;20214;-78
2022/12/10 14:59:00;;;;;;;24.30;21.97;;;2.40;99.90;;;;;;4888995;29;20208;-78
2022/12/10 15:01:30;;;;;;;26.20;23.40;;;2.40;99.90;;;;;;4881768;29;20233;-78
2022/12/10 15:04:01;;;;;;;26.10;23.50;;;2.30;99.90;;;;;;4880264;29;20261;-78
2022/12/10 15:06:28;;;;;;;25.87;23.37;;;2.30;99.90;;;;;;4886164;29;20816;-77
2022/12/10 15:08:58;;;;;;;26.70;24.10;;;2.30;99.90;;;;;;4877200;29;20458;-78
2022/12/10 15:11:26;;;;;;;28.07;25.10;;;2.30;99.90;;;;;;4881979;29;20466;-79
2022/12/10 15:13:58;;;;;;;26.90;24.20;;;2.20;99.90;;;;;;4879702;29;20252;-78
2022/12/10 15:16:32;;;;;;;27.60;24.80;;;2.20;99.90;;;;;;4881671;29;20220;-78
2022/12/10 15:19:16;;;;;;;28.70;25.60;;;2.20;99.90;;;;;;4883700;29;20206;-78
2022/12/10 15:21:44;;;;;;;28.27;24.40;;;2.20;99.90;;;;;;4872607;29;20467;-78
2022/12/10 15:24:18;;;;;;;29.67;24.87;;;2.10;99.90;;;;;;4884076;29;20842;-78
2022/12/10 15:26:47;;;;;;;30.27;25.83;;;2.10;99.90;;;;;;4889246;29;20444;-78
2022/12/10 15:29:34;;;;;;;32.43;27.20;;;2.10;99.90;;;;;;4883536;29;20542;-78
2022/12/10 15:32:06;;;;;;;30.77;26.80;;;2.10;99.90;;;;;;4885154;29;20470;-78
2022/12/10 15:34:40;;;;;;;30.03;26.83;;;2.10;99.90;;;;;;4882605;29;20449;-78
2022/12/10 15:37:14;;;;;;;31.17;27.80;;;2.10;99.90;;;;;;4883768;29;20584;-78
2022/12/10 15:39:47;;;;;;;32.13;26.03;;;2.10;99.90;;;;;;4886458;29;20496;-78
2022/12/10 15:42:30;;;;;;;29.63;26.40;;;2.00;99.90;;;;;;4887679;29;20484;-78
2022/12/10 15:45:02;;;;;;;29.47;26.40;;;2.00;99.90;;;;;;4885071;29;20444;-78
2022/12/10 15:47:30;;;;;;;28.97;25.83;;;1.90;99.90;;;;;;4878314;29;20465;-78
2022/12/10 15:49:57;;;;;;;29.23;26.23;;;1.90;99.90;;;;;;4894551;29;20445;-78
2022/12/10 15:52:26;;;;;;;32.70;26.67;;;1.90;99.90;;;;;;4884146;29;20521;-79
2022/12/10 15:54:55;;;;;;;28.77;25.67;;;1.90;99.90;;;;;;4892749;29;20440;-78
2022/12/10 15:57:23;;;;;;;31.07;27.70;;;1.90;99.90;;;;;;4891046;29;20886;-78
2022/12/10 15:59:51;;;;;;;31.37;28.07;;;1.90;99.90;;;;;;4885713;29;20484;-78
2022/12/10 16:02:28;;;;;;;31.87;28.37;;;1.90;99.90;;;;;;4881601;29;20482;-77
2022/12/10 16:04:55;;;;;;;31.70;27.80;;;1.90;99.90;;;;;;4885089;29;20453;-78
2022/12/10 16:07:22;;;;;;;34.00;28.40;;;1.90;99.90;;;;;;4882771;29;20456;-78
2022/12/10 16:09:49;;;;;;;31.33;27.83;;;1.90;99.90;;;;;;4876748;29;20450;-78